sensor_id;sensor_type;location;lat;lon;timestamp;temperature;humidity
240;DHT22;104;53.590;10.004;2022-11-25T00:00:14;4.70;96.80
240;DHT22;104;53.590;10.004;2022-11-25T00:07:39;4.80;96.80
240;DHT22;104;53.590;10.004;2022-11-25T00:10:06;4.70;96.80
240;DHT22;104;53.590;10.004;2022-11-25T00:12:34;4.70;96.80
240;DHT22;104;53.590;10.004;2022-11-25T00:15:02;4.60;96.80
240;DHT22;104;53.590;10.004;2022-11-25T00:17:30;4.60;96.80
240;DHT22;104;53.590;10.004;2022-11-25T00:19:57;4.50;96.80
240;DHT22;104;53.590;10.004;2022-11-25T00:22:26;4.50;96.80
240;DHT22;104;53.590;10.004;2022-11-25T00:24:53;4.50;96.80
240;DHT22;104;53.590;10.004;2022-11-25T00:27:20;4.50;96.80
240;DHT22;104;53.590;10.004;2022-11-25T00:29:47;4.40;96.80
240;DHT22;104;53.590;10.004;2022-11-25T00:32:14;4.40;96.80
240;DHT22;104;53.590;10.004;2022-11-25T00:34:42;4.30;96.80
240;DHT22;104;53.590;10.004;2022-11-25T00:39:37;4.30;96.80
240;DHT22;104;53.590;10.004;2022-11-25T00:42:04;4.30;96.80
240;DHT22;104;53.590;10.004;2022-11-25T00:44:51;4.20;96.80
240;DHT22;104;53.590;10.004;2022-11-25T00:47:19;4.20;96.80
240;DHT22;104;53.590;10.004;2022-11-25T00:49:50;4.20;96.80
240;DHT22;104;53.590;10.004;2022-11-25T00:52:19;4.20;96.80
240;DHT22;104;53.590;10.004;2022-11-25T00:54:47;4.10;96.80
240;DHT22;104;53.590;10.004;2022-11-25T00:57:15;4.00;96.80
240;DHT22;104;53.590;10.004;2022-11-25T00:59:43;4.10;96.80
240;DHT22;104;53.590;10.004;2022-11-25T01:02:11;4.00;96.80
240;DHT22;104;53.590;10.004;2022-11-25T01:04:38;4.00;96.80
240;DHT22;104;53.590;10.004;2022-11-25T01:07:07;3.90;96.80
240;DHT22;104;53.590;10.004;2022-11-25T01:09:34;3.90;96.80
240;DHT22;104;53.590;10.004;2022-11-25T01:12:02;4.00;96.80
240;DHT22;104;53.590;10.004;2022-11-25T01:14:30;4.20;96.80
240;DHT22;104;53.590;10.004;2022-11-25T01:16:58;4.20;96.80
240;DHT22;104;53.590;10.004;2022-11-25T01:19:25;4.30;96.80
240;DHT22;104;53.590;10.004;2022-11-25T01:21:52;4.30;96.80
240;DHT22;104;53.590;10.004;2022-11-25T01:24:20;4.40;96.80
240;DHT22;104;53.590;10.004;2022-11-25T01:26:47;4.50;96.80
240;DHT22;104;53.590;10.004;2022-11-25T01:29:16;4.50;96.80
240;DHT22;104;53.590;10.004;2022-11-25T01:31:44;4.70;96.80
240;DHT22;104;53.590;10.004;2022-11-25T01:34:13;4.80;96.80
240;DHT22;104;53.590;10.004;2022-11-25T01:36:41;4.80;96.80
240;DHT22;104;53.590;10.004;2022-11-25T01:39:13;4.90;96.80
240;DHT22;104;53.590;10.004;2022-11-25T01:41:43;4.90;96.80
240;DHT22;104;53.590;10.004;2022-11-25T01:44:21;4.90;96.80
240;DHT22;104;53.590;10.004;2022-11-25T01:46:57;5.00;96.80
240;DHT22;104;53.590;10.004;2022-11-25T01:49:31;5.10;96.80
240;DHT22;104;53.590;10.004;2022-11-25T01:52:04;5.10;96.80
240;DHT22;104;53.590;10.004;2022-11-25T01:54:35;5.00;96.80
240;DHT22;104;53.590;10.004;2022-11-25T01:57:07;5.00;96.80
240;DHT22;104;53.590;10.004;2022-11-25T01:59:39;5.00;96.80
240;DHT22;104;53.590;10.004;2022-11-25T02:02:07;5.00;96.80
240;DHT22;104;53.590;10.004;2022-11-25T02:04:37;5.00;96.80
240;DHT22;104;53.590;10.004;2022-11-25T02:07:09;5.00;96.80
240;DHT22;104;53.590;10.004;2022-11-25T02:09:38;5.10;96.80
240;DHT22;104;53.590;10.004;2022-11-25T02:12:09;5.10;96.80
240;DHT22;104;53.590;10.004;2022-11-25T02:14:37;5.00;96.80
240;DHT22;104;53.590;10.004;2022-11-25T02:17:04;5.00;96.80
240;DHT22;104;53.590;10.004;2022-11-25T02:19:45;4.90;96.80
240;DHT22;104;53.590;10.004;2022-11-25T02:22:21;4.80;96.80
240;DHT22;104;53.590;10.004;2022-11-25T02:24:54;4.80;96.80
240;DHT22;104;53.590;10.004;2022-11-25T02:27:25;4.90;96.80
240;DHT22;104;53.590;10.004;2022-11-25T02:29:53;4.90;96.80
240;DHT22;104;53.590;10.004;2022-11-25T02:32:21;4.90;96.80
240;DHT22;104;53.590;10.004;2022-11-25T02:34:49;4.90;96.80
240;DHT22;104;53.590;10.004;2022-11-25T02:37:18;4.90;96.80
240;DHT22;104;53.590;10.004;2022-11-25T02:39:47;4.90;96.80
240;DHT22;104;53.590;10.004;2022-11-25T02:42:18;5.00;96.80
240;DHT22;104;53.590;10.004;2022-11-25T02:47:16;5.00;96.80
240;DHT22;104;53.590;10.004;2022-11-25T02:52:10;5.10;96.80
240;DHT22;104;53.590;10.004;2022-11-25T02:54:38;5.10;96.80
240;DHT22;104;53.590;10.004;2022-11-25T02:57:05;5.10;96.80
240;DHT22;104;53.590;10.004;2022-11-25T03:02:01;5.10;96.80
240;DHT22;104;53.590;10.004;2022-11-25T03:04:29;5.10;96.80
240;DHT22;104;53.590;10.004;2022-11-25T03:06:56;5.10;96.80
240;DHT22;104;53.590;10.004;2022-11-25T03:11:50;5.20;96.80
240;DHT22;104;53.590;10.004;2022-11-25T03:14:35;5.20;96.80
240;DHT22;104;53.590;10.004;2022-11-25T03:17:03;5.20;96.80
240;DHT22;104;53.590;10.004;2022-11-25T03:19:30;5.20;96.80
240;DHT22;104;53.590;10.004;2022-11-25T03:24:24;5.10;96.80
240;DHT22;104;53.590;10.004;2022-11-25T03:26:51;5.20;96.80
240;DHT22;104;53.590;10.004;2022-11-25T03:29:18;5.10;96.80
240;DHT22;104;53.590;10.004;2022-11-25T03:31:46;5.10;96.80
240;DHT22;104;53.590;10.004;2022-11-25T03:34:14;5.10;96.80
240;DHT22;104;53.590;10.004;2022-11-25T03:36:41;5.10;96.80
240;DHT22;104;53.590;10.004;2022-11-25T03:39:08;5.10;96.80
240;DHT22;104;53.590;10.004;2022-11-25T03:41:35;5.00;96.80
240;DHT22;104;53.590;10.004;2022-11-25T03:44:02;5.10;96.80
240;DHT22;104;53.590;10.004;2022-11-25T03:48:56;5.10;96.80
240;DHT22;104;53.590;10.004;2022-11-25T03:51:24;5.10;96.80
240;DHT22;104;53.590;10.004;2022-11-25T03:56:19;5.00;96.80
240;DHT22;104;53.590;10.004;2022-11-25T03:58:46;5.00;96.80
240;DHT22;104;53.590;10.004;2022-11-25T04:01:13;5.00;96.80
240;DHT22;104;53.590;10.004;2022-11-25T04:03:40;5.00;96.80
240;DHT22;104;53.590;10.004;2022-11-25T04:06:07;5.00;96.80
240;DHT22;104;53.590;10.004;2022-11-25T04:08:35;4.90;96.80
240;DHT22;104;53.590;10.004;2022-11-25T04:11:03;4.90;96.80
240;DHT22;104;53.590;10.004;2022-11-25T04:13:30;4.80;96.80
240;DHT22;104;53.590;10.004;2022-11-25T04:15:56;4.80;96.80
240;DHT22;104;53.590;10.004;2022-11-25T04:18:23;4.80;96.80
240;DHT22;104;53.590;10.004;2022-11-25T04:23:17;4.70;96.80
240;DHT22;104;53.590;10.004;2022-11-25T04:25:48;4.70;96.80
240;DHT22;104;53.590;10.004;2022-11-25T04:28:16;4.70;96.80
240;DHT22;104;53.590;10.004;2022-11-25T04:30:43;4.60;96.80
240;DHT22;104;53.590;10.004;2022-11-25T04:33:10;4.60;96.80
240;DHT22;104;53.590;10.004;2022-11-25T04:35:36;4.60;96.80
240;DHT22;104;53.590;10.004;2022-11-25T04:38:03;4.60;96.80
240;DHT22;104;53.590;10.004;2022-11-25T04:40:30;4.60;96.80
240;DHT22;104;53.590;10.004;2022-11-25T04:42:59;4.60;96.80
240;DHT22;104;53.590;10.004;2022-11-25T04:45:26;4.50;96.80
240;DHT22;104;53.590;10.004;2022-11-25T04:47:53;4.60;96.80
240;DHT22;104;53.590;10.004;2022-11-25T04:50:21;4.50;96.80
240;DHT22;104;53.590;10.004;2022-11-25T04:52:48;4.60;96.80
240;DHT22;104;53.590;10.004;2022-11-25T04:55:15;4.50;96.80
240;DHT22;104;53.590;10.004;2022-11-25T04:57:42;4.50;96.80
240;DHT22;104;53.590;10.004;2022-11-25T05:00:12;4.40;96.80
240;DHT22;104;53.590;10.004;2022-11-25T05:05:06;4.50;96.80
240;DHT22;104;53.590;10.004;2022-11-25T05:07:34;4.40;96.80
240;DHT22;104;53.590;10.004;2022-11-25T05:10:01;4.50;96.80
240;DHT22;104;53.590;10.004;2022-11-25T05:12:28;4.50;96.80
240;DHT22;104;53.590;10.004;2022-11-25T05:14:55;4.50;96.80
240;DHT22;104;53.590;10.004;2022-11-25T05:19:52;4.50;96.80
240;DHT22;104;53.590;10.004;2022-11-25T05:22:20;4.50;96.80
240;DHT22;104;53.590;10.004;2022-11-25T05:27:16;4.40;96.80
240;DHT22;104;53.590;10.004;2022-11-25T05:29:43;4.50;96.80
240;DHT22;104;53.590;10.004;2022-11-25T05:32:10;4.50;96.80
240;DHT22;104;53.590;10.004;2022-11-25T05:34:40;4.50;96.80
240;DHT22;104;53.590;10.004;2022-11-25T05:37:08;4.50;96.80
240;DHT22;104;53.590;10.004;2022-11-25T05:39:35;4.50;96.80
240;DHT22;104;53.590;10.004;2022-11-25T05:42:02;4.50;96.80
240;DHT22;104;53.590;10.004;2022-11-25T05:44:30;4.50;96.80
240;DHT22;104;53.590;10.004;2022-11-25T05:46:57;4.40;96.80
240;DHT22;104;53.590;10.004;2022-11-25T05:49:24;4.40;96.80
240;DHT22;104;53.590;10.004;2022-11-25T05:51:52;4.30;96.80
240;DHT22;104;53.590;10.004;2022-11-25T05:56:46;4.30;96.80
240;DHT22;104;53.590;10.004;2022-11-25T05:59:13;4.30;96.80
240;DHT22;104;53.590;10.004;2022-11-25T06:01:40;4.40;96.80
240;DHT22;104;53.590;10.004;2022-11-25T06:04:09;4.40;96.80
240;DHT22;104;53.590;10.004;2022-11-25T06:06:36;4.30;96.80
240;DHT22;104;53.590;10.004;2022-11-25T06:11:32;4.30;96.80
240;DHT22;104;53.590;10.004;2022-11-25T06:13:59;4.30;96.80
240;DHT22;104;53.590;10.004;2022-11-25T06:18:53;4.30;96.80
240;DHT22;104;53.590;10.004;2022-11-25T06:21:20;4.20;96.80
240;DHT22;104;53.590;10.004;2022-11-25T06:23:47;4.20;96.80
240;DHT22;104;53.590;10.004;2022-11-25T06:26:17;4.20;96.80
240;DHT22;104;53.590;10.004;2022-11-25T06:28:45;4.20;96.80
240;DHT22;104;53.590;10.004;2022-11-25T06:31:14;4.20;96.80
240;DHT22;104;53.590;10.004;2022-11-25T06:33:45;4.20;96.80
240;DHT22;104;53.590;10.004;2022-11-25T06:36:12;4.20;96.80
240;DHT22;104;53.590;10.004;2022-11-25T06:38:41;4.20;96.80
240;DHT22;104;53.590;10.004;2022-11-25T06:46:06;4.30;96.80
240;DHT22;104;53.590;10.004;2022-11-25T06:48:33;4.20;96.80
240;DHT22;104;53.590;10.004;2022-11-25T06:51:01;4.20;96.80
240;DHT22;104;53.590;10.004;2022-11-25T06:53:29;4.20;96.80
240;DHT22;104;53.590;10.004;2022-11-25T06:56:04;4.20;96.80
240;DHT22;104;53.590;10.004;2022-11-25T06:58:31;4.20;96.80
240;DHT22;104;53.590;10.004;2022-11-25T07:01:04;4.20;96.80
240;DHT22;104;53.590;10.004;2022-11-25T07:03:32;4.30;96.80
240;DHT22;104;53.590;10.004;2022-11-25T07:05:59;4.20;96.80
240;DHT22;104;53.590;10.004;2022-11-25T07:13:21;4.30;96.80
240;DHT22;104;53.590;10.004;2022-11-25T07:15:48;4.30;96.80
240;DHT22;104;53.590;10.004;2022-11-25T07:28:06;4.60;96.80
240;DHT22;104;53.590;10.004;2022-11-25T07:37:55;4.70;96.80
240;DHT22;104;53.590;10.004;2022-11-25T07:45:17;4.70;96.80
240;DHT22;104;53.590;10.004;2022-11-25T07:47:45;4.80;96.80
240;DHT22;104;53.590;10.004;2022-11-25T08:00:06;4.80;96.80
240;DHT22;104;53.590;10.004;2022-11-25T08:14:52;5.10;96.80
240;DHT22;104;53.590;10.004;2022-11-25T08:27:14;5.10;96.80
240;DHT22;104;53.590;10.004;2022-11-25T09:24:36;5.80;96.80
240;DHT22;104;53.590;10.004;2022-11-25T09:31:58;5.90;96.80
240;DHT22;104;53.590;10.004;2022-11-25T09:45:02;5.80;96.80
240;DHT22;104;53.590;10.004;2022-11-25T09:47:56;5.80;96.80
240;DHT22;104;53.590;10.004;2022-11-25T09:50:41;5.90;96.80
240;DHT22;104;53.590;10.004;2022-11-25T09:53:16;5.90;96.80
240;DHT22;104;53.590;10.004;2022-11-25T09:55:46;6.00;96.80
240;DHT22;104;53.590;10.004;2022-11-25T09:58:23;6.00;96.80
240;DHT22;104;53.590;10.004;2022-11-25T10:00:52;6.10;96.80
240;DHT22;104;53.590;10.004;2022-11-25T10:03:30;6.20;96.80
240;DHT22;104;53.590;10.004;2022-11-25T10:06:04;6.10;96.80
240;DHT22;104;53.590;10.004;2022-11-25T10:08:36;6.30;96.80
240;DHT22;104;53.590;10.004;2022-11-25T10:18:50;6.30;96.80
240;DHT22;104;53.590;10.004;2022-11-25T10:23:47;6.60;96.80
240;DHT22;104;53.590;10.004;2022-11-25T10:26:16;6.70;96.80
240;DHT22;104;53.590;10.004;2022-11-25T10:28:49;6.70;96.80
240;DHT22;104;53.590;10.004;2022-11-25T10:31:19;6.80;96.80
240;DHT22;104;53.590;10.004;2022-11-25T10:33:51;6.90;96.80
240;DHT22;104;53.590;10.004;2022-11-25T10:36:23;6.80;96.80
240;DHT22;104;53.590;10.004;2022-11-25T10:38:56;6.70;96.80
240;DHT22;104;53.590;10.004;2022-11-25T10:41:28;6.60;96.80
240;DHT22;104;53.590;10.004;2022-11-25T10:46:31;6.50;96.80
240;DHT22;104;53.590;10.004;2022-11-25T10:49:10;6.40;96.80
240;DHT22;104;53.590;10.004;2022-11-25T10:51:44;6.50;96.80
240;DHT22;104;53.590;10.004;2022-11-25T10:54:14;6.50;96.80
240;DHT22;104;53.590;10.004;2022-11-25T10:59:20;6.50;96.80
240;DHT22;104;53.590;10.004;2022-11-25T11:01:50;6.50;96.80
240;DHT22;104;53.590;10.004;2022-11-25T11:06:48;6.60;96.80
240;DHT22;104;53.590;10.004;2022-11-25T11:09:33;6.70;96.80
240;DHT22;104;53.590;10.004;2022-11-25T11:12:17;6.80;96.80
240;DHT22;104;53.590;10.004;2022-11-25T11:22:48;7.20;96.80
240;DHT22;104;53.590;10.004;2022-11-25T11:25:27;7.30;96.70
240;DHT22;104;53.590;10.004;2022-11-25T11:30:28;7.30;96.30
240;DHT22;104;53.590;10.004;2022-11-25T11:33:01;7.40;96.30
240;DHT22;104;53.590;10.004;2022-11-25T11:35:40;7.40;96.20
240;DHT22;104;53.590;10.004;2022-11-25T11:38:24;7.40;96.10
240;DHT22;104;53.590;10.004;2022-11-25T11:40:55;7.50;95.50
240;DHT22;104;53.590;10.004;2022-11-25T11:46:29;7.60;94.40
240;DHT22;104;53.590;10.004;2022-11-25T11:56:37;7.80;93.50
240;DHT22;104;53.590;10.004;2022-11-25T12:02:10;7.60;93.90
240;DHT22;104;53.590;10.004;2022-11-25T12:04:42;7.60;94.20
240;DHT22;104;53.590;10.004;2022-11-25T12:07:14;7.60;94.20
240;DHT22;104;53.590;10.004;2022-11-25T12:09:51;7.40;94.80
240;DHT22;104;53.590;10.004;2022-11-25T12:12:23;7.30;95.10
240;DHT22;104;53.590;10.004;2022-11-25T12:14:56;7.20;95.40
240;DHT22;104;53.590;10.004;2022-11-25T12:17:41;7.00;95.80
240;DHT22;104;53.590;10.004;2022-11-25T12:20:16;6.90;96.40
240;DHT22;104;53.590;10.004;2022-11-25T12:25:21;6.60;96.80
240;DHT22;104;53.590;10.004;2022-11-25T12:27:52;6.60;96.80
240;DHT22;104;53.590;10.004;2022-11-25T12:35:35;7.00;96.80
240;DHT22;104;53.590;10.004;2022-11-25T12:38:19;7.00;96.80
240;DHT22;104;53.590;10.004;2022-11-25T12:46:00;7.70;95.20
240;DHT22;104;53.590;10.004;2022-11-25T12:48:31;7.80;94.70
240;DHT22;104;53.590;10.004;2022-11-25T12:51:04;7.80;94.20
240;DHT22;104;53.590;10.004;2022-11-25T12:53:38;7.90;94.10
240;DHT22;104;53.590;10.004;2022-11-25T12:56:18;7.70;93.30
240;DHT22;104;53.590;10.004;2022-11-25T12:59:04;7.50;94.30
240;DHT22;104;53.590;10.004;2022-11-25T13:01:51;7.50;94.50
240;DHT22;104;53.590;10.004;2022-11-25T13:04:41;7.60;94.60
240;DHT22;104;53.590;10.004;2022-11-25T13:07:23;7.60;94.40
240;DHT22;104;53.590;10.004;2022-11-25T13:12:50;7.50;95.00
240;DHT22;104;53.590;10.004;2022-11-25T13:15:25;7.60;95.00
240;DHT22;104;53.590;10.004;2022-11-25T13:17:56;7.60;94.90
240;DHT22;104;53.590;10.004;2022-11-25T13:23:04;7.60;95.20
240;DHT22;104;53.590;10.004;2022-11-25T13:25:35;7.60;95.40
240;DHT22;104;53.590;10.004;2022-11-25T13:28:04;7.60;95.50
240;DHT22;104;53.590;10.004;2022-11-25T13:30:37;7.60;95.70
240;DHT22;104;53.590;10.004;2022-11-25T13:36:16;7.60;96.20
240;DHT22;104;53.590;10.004;2022-11-25T13:39:11;7.50;96.10
240;DHT22;104;53.590;10.004;2022-11-25T13:41:57;7.50;96.20
240;DHT22;104;53.590;10.004;2022-11-25T13:44:28;7.50;96.40
240;DHT22;104;53.590;10.004;2022-11-25T13:46:59;7.50;96.80
240;DHT22;104;53.590;10.004;2022-11-25T13:49:51;7.50;96.80
240;DHT22;104;53.590;10.004;2022-11-25T13:52:34;7.50;96.80
240;DHT22;104;53.590;10.004;2022-11-25T13:55:09;7.50;96.80
240;DHT22;104;53.590;10.004;2022-11-25T13:57:47;7.50;96.80
240;DHT22;104;53.590;10.004;2022-11-25T14:00:43;7.50;96.80
240;DHT22;104;53.590;10.004;2022-11-25T14:03:45;7.60;96.80
240;DHT22;104;53.590;10.004;2022-11-25T14:06:24;7.40;96.80
240;DHT22;104;53.590;10.004;2022-11-25T14:08:55;7.40;96.80
240;DHT22;104;53.590;10.004;2022-11-25T14:14:42;7.40;96.80
240;DHT22;104;53.590;10.004;2022-11-25T14:20:24;7.40;96.80
240;DHT22;104;53.590;10.004;2022-11-25T14:23:10;7.40;96.80
240;DHT22;104;53.590;10.004;2022-11-25T14:25:47;7.40;96.80
240;DHT22;104;53.590;10.004;2022-11-25T14:28:24;7.40;96.80
240;DHT22;104;53.590;10.004;2022-11-25T14:30:55;7.40;96.80
240;DHT22;104;53.590;10.004;2022-11-25T14:36:09;7.40;96.80
240;DHT22;104;53.590;10.004;2022-11-25T14:38:44;7.40;96.80
240;DHT22;104;53.590;10.004;2022-11-25T14:41:16;7.50;96.80
240;DHT22;104;53.590;10.004;2022-11-25T14:43:49;7.40;96.80
240;DHT22;104;53.590;10.004;2022-11-25T14:46:20;7.40;96.80
240;DHT22;104;53.590;10.004;2022-11-25T14:48:54;7.50;96.80
240;DHT22;104;53.590;10.004;2022-11-25T14:51:22;7.40;96.80
240;DHT22;104;53.590;10.004;2022-11-25T14:53:51;7.40;96.80
240;DHT22;104;53.590;10.004;2022-11-25T14:56:23;7.40;96.80
240;DHT22;104;53.590;10.004;2022-11-25T14:58:52;7.40;96.80
240;DHT22;104;53.590;10.004;2022-11-25T15:01:22;7.30;96.80
240;DHT22;104;53.590;10.004;2022-11-25T15:03:54;7.30;96.80
240;DHT22;104;53.590;10.004;2022-11-25T15:06:32;7.30;96.80
240;DHT22;104;53.590;10.004;2022-11-25T15:09:00;7.20;96.80
240;DHT22;104;53.590;10.004;2022-11-25T15:11:30;7.20;96.80
240;DHT22;104;53.590;10.004;2022-11-25T15:14:00;7.20;96.80
240;DHT22;104;53.590;10.004;2022-11-25T15:16:32;7.20;96.80
240;DHT22;104;53.590;10.004;2022-11-25T15:19:16;7.20;96.80
240;DHT22;104;53.590;10.004;2022-11-25T15:24:22;7.20;96.80
240;DHT22;104;53.590;10.004;2022-11-25T15:26:50;7.20;96.80
240;DHT22;104;53.590;10.004;2022-11-25T15:29:29;7.20;96.80
240;DHT22;104;53.590;10.004;2022-11-25T15:31:58;7.20;96.80
240;DHT22;104;53.590;10.004;2022-11-25T15:34:28;7.20;96.80
240;DHT22;104;53.590;10.004;2022-11-25T15:36:59;7.20;96.80
240;DHT22;104;53.590;10.004;2022-11-25T15:39:26;7.20;96.80
240;DHT22;104;53.590;10.004;2022-11-25T15:42:01;7.10;96.80
240;DHT22;104;53.590;10.004;2022-11-25T15:44:32;7.10;96.80
240;DHT22;104;53.590;10.004;2022-11-25T15:47:02;7.10;96.80
240;DHT22;104;53.590;10.004;2022-11-25T15:49:31;7.20;96.80
240;DHT22;104;53.590;10.004;2022-11-25T15:52:03;7.20;96.80
240;DHT22;104;53.590;10.004;2022-11-25T15:54:37;7.20;96.80
240;DHT22;104;53.590;10.004;2022-11-25T15:57:18;7.20;96.80
240;DHT22;104;53.590;10.004;2022-11-25T15:59:48;7.20;96.80
240;DHT22;104;53.590;10.004;2022-11-25T16:02:37;7.20;96.80
240;DHT22;104;53.590;10.004;2022-11-25T16:05:30;7.20;96.80
240;DHT22;104;53.590;10.004;2022-11-25T16:10:54;7.30;96.80
240;DHT22;104;53.590;10.004;2022-11-25T16:13:39;7.20;96.80
240;DHT22;104;53.590;10.004;2022-11-25T16:16:23;7.20;96.80
240;DHT22;104;53.590;10.004;2022-11-25T16:19:16;7.20;96.80
240;DHT22;104;53.590;10.004;2022-11-25T16:24:46;7.20;96.80
240;DHT22;104;53.590;10.004;2022-11-25T16:27:21;7.20;96.80
240;DHT22;104;53.590;10.004;2022-11-25T16:29:52;7.20;96.80
240;DHT22;104;53.590;10.004;2022-11-25T16:32:20;7.20;96.80
240;DHT22;104;53.590;10.004;2022-11-25T16:34:47;7.20;96.80
240;DHT22;104;53.590;10.004;2022-11-25T16:42:16;7.20;96.80
240;DHT22;104;53.590;10.004;2022-11-25T16:44:46;7.20;96.80
240;DHT22;104;53.590;10.004;2022-11-25T16:57:15;7.20;96.80
240;DHT22;104;53.590;10.004;2022-11-25T16:59:43;7.20;96.80
240;DHT22;104;53.590;10.004;2022-11-25T17:02:15;7.20;96.80
240;DHT22;104;53.590;10.004;2022-11-25T17:12:14;7.20;96.80
240;DHT22;104;53.590;10.004;2022-11-25T17:14:42;7.20;96.80
240;DHT22;104;53.590;10.004;2022-11-25T17:27:19;7.20;96.80
240;DHT22;104;53.590;10.004;2022-11-25T17:29:47;7.20;96.80
240;DHT22;104;53.590;10.004;2022-11-25T17:32:15;7.20;96.80
240;DHT22;104;53.590;10.004;2022-11-25T17:37:12;7.30;96.80
240;DHT22;104;53.590;10.004;2022-11-25T17:39:40;7.30;96.80
240;DHT22;104;53.590;10.004;2022-11-25T17:42:11;7.20;96.80
240;DHT22;104;53.590;10.004;2022-11-25T17:44:42;7.20;96.80
240;DHT22;104;53.590;10.004;2022-11-25T17:47:15;7.20;96.80
240;DHT22;104;53.590;10.004;2022-11-25T17:49:43;7.30;96.80
240;DHT22;104;53.590;10.004;2022-11-25T17:52:11;7.30;96.80
240;DHT22;104;53.590;10.004;2022-11-25T17:57:08;7.30;96.80
240;DHT22;104;53.590;10.004;2022-11-25T18:07:07;7.40;96.80
240;DHT22;104;53.590;10.004;2022-11-25T18:12:08;7.30;96.80
240;DHT22;104;53.590;10.004;2022-11-25T18:17:13;7.30;96.80
240;DHT22;104;53.590;10.004;2022-11-25T18:22:12;7.20;96.80
240;DHT22;104;53.590;10.004;2022-11-25T18:27:09;7.20;96.80
240;DHT22;104;53.590;10.004;2022-11-25T21:06:34;7.20;96.80
240;DHT22;104;53.590;10.004;2022-11-25T21:09:05;7.20;96.80
240;DHT22;104;53.590;10.004;2022-11-25T21:11:36;7.30;96.80
240;DHT22;104;53.590;10.004;2022-11-25T21:14:09;7.30;96.80
240;DHT22;104;53.590;10.004;2022-11-25T21:21:48;7.30;96.80
240;DHT22;104;53.590;10.004;2022-11-25T21:27:01;7.30;96.80
240;DHT22;104;53.590;10.004;2022-11-25T21:29:30;7.30;96.80
240;DHT22;104;53.590;10.004;2022-11-25T21:37:24;7.30;96.80
240;DHT22;104;53.590;10.004;2022-11-25T21:42:28;7.20;96.80
240;DHT22;104;53.590;10.004;2022-11-25T21:44:58;7.30;96.80
240;DHT22;104;53.590;10.004;2022-11-25T21:55:11;7.20;96.80
240;DHT22;104;53.590;10.004;2022-11-25T21:57:41;7.30;96.80
240;DHT22;104;53.590;10.004;2022-11-25T22:00:24;7.20;96.80
240;DHT22;104;53.590;10.004;2022-11-25T22:02:52;7.20;96.80
240;DHT22;104;53.590;10.004;2022-11-25T22:05:21;7.20;96.80
240;DHT22;104;53.590;10.004;2022-11-25T22:12:47;7.20;96.80
240;DHT22;104;53.590;10.004;2022-11-25T22:15:17;7.20;96.80
240;DHT22;104;53.590;10.004;2022-11-25T22:20:24;7.10;96.80
240;DHT22;104;53.590;10.004;2022-11-25T22:30:17;6.60;96.80
240;DHT22;104;53.590;10.004;2022-11-25T22:32:46;6.60;96.80
240;DHT22;104;53.590;10.004;2022-11-25T22:35:15;6.70;96.80
240;DHT22;104;53.590;10.004;2022-11-25T22:37:46;6.80;96.80
240;DHT22;104;53.590;10.004;2022-11-25T22:42:54;7.00;96.80
240;DHT22;104;53.590;10.004;2022-11-25T22:45:29;7.10;96.80
240;DHT22;104;53.590;10.004;2022-11-25T22:52:57;7.30;96.80
240;DHT22;104;53.590;10.004;2022-11-25T23:11:19;7.30;96.80
240;DHT22;104;53.590;10.004;2022-11-25T23:46:08;7.30;96.80
240;DHT22;104;53.590;10.004;2022-11-25T23:51:07;7.30;96.80
240;DHT22;104;53.590;10.004;2022-11-25T23:53:38;7.30;96.80
240;DHT22;104;53.590;10.004;2022-11-25T23:56:10;7.30;96.80
240;DHT22;104;53.590;10.004;2022-11-25T23:58:40;7.40;96.80
